sensor_id;sensor_type;location;lat;lon;timestamp;P1;durP1;ratioP1;P2;durP2;ratioP2
27889;SDS011;15238;49.082;9.102;2023-06-19T00:00:02;6.78;;;5.28;;
27889;SDS011;15238;49.082;9.102;2023-06-19T00:02:07;8.55;;;5.32;;
27889;SDS011;15238;49.082;9.102;2023-06-19T00:04:08;7.18;;;5.15;;
27889;SDS011;15238;49.082;9.102;2023-06-19T00:06:10;7.50;;;5.75;;
27889;SDS011;15238;49.082;9.102;2023-06-19T00:08:12;9.10;;;5.13;;
27889;SDS011;15238;49.082;9.102;2023-06-19T00:10:13;6.43;;;4.82;;
27889;SDS011;15238;49.082;9.102;2023-06-19T00:12:13;9.07;;;5.82;;
27889;SDS011;15238;49.082;9.102;2023-06-19T00:14:14;6.93;;;5.60;;
27889;SDS011;15238;49.082;9.102;2023-06-19T00:16:15;10.77;;;6.18;;
27889;SDS011;15238;49.082;9.102;2023-06-19T00:18:15;7.78;;;6.28;;
27889;SDS011;15238;49.082;9.102;2023-06-19T00:20:17;7.25;;;5.60;;
27889;SDS011;15238;49.082;9.102;2023-06-19T00:22:18;5.88;;;5.03;;
27889;SDS011;15238;49.082;9.102;2023-06-19T00:24:19;5.63;;;4.95;;
27889;SDS011;15238;49.082;9.102;2023-06-19T00:26:20;6.05;;;5.45;;
27889;SDS011;15238;49.082;9.102;2023-06-19T00:28:25;6.32;;;5.30;;
27889;SDS011;15238;49.082;9.102;2023-06-19T00:30:25;9.57;;;5.60;;
27889;SDS011;15238;49.082;9.102;2023-06-19T00:32:26;8.00;;;5.95;;
27889;SDS011;15238;49.082;9.102;2023-06-19T00:34:28;9.27;;;5.97;;
27889;SDS011;15238;49.082;9.102;2023-06-19T00:36:29;8.23;;;5.30;;
27889;SDS011;15238;49.082;9.102;2023-06-19T00:38:30;6.55;;;5.43;;
27889;SDS011;15238;49.082;9.102;2023-06-19T00:40:31;7.78;;;5.47;;
27889;SDS011;15238;49.082;9.102;2023-06-19T00:42:33;12.38;;;6.22;;
27889;SDS011;15238;49.082;9.102;2023-06-19T00:44:33;5.78;;;5.18;;
27889;SDS011;15238;49.082;9.102;2023-06-19T00:46:35;7.20;;;5.80;;
27889;SDS011;15238;49.082;9.102;2023-06-19T00:48:39;8.73;;;5.60;;
27889;SDS011;15238;49.082;9.102;2023-06-19T00:50:40;7.63;;;5.68;;
27889;SDS011;15238;49.082;9.102;2023-06-19T00:52:41;6.53;;;5.32;;
27889;SDS011;15238;49.082;9.102;2023-06-19T00:54:42;7.68;;;5.32;;
27889;SDS011;15238;49.082;9.102;2023-06-19T00:56:43;6.03;;;5.40;;
27889;SDS011;15238;49.082;9.102;2023-06-19T00:58:44;6.68;;;5.50;;
27889;SDS011;15238;49.082;9.102;2023-06-19T01:00:45;6.05;;;5.45;;
27889;SDS011;15238;49.082;9.102;2023-06-19T01:02:46;5.93;;;5.28;;
27889;SDS011;15238;49.082;9.102;2023-06-19T01:04:47;6.05;;;5.22;;
27889;SDS011;15238;49.082;9.102;2023-06-19T01:09:07;7.78;;;6.07;;
27889;SDS011;15238;49.082;9.102;2023-06-19T01:11:10;7.75;;;5.68;;
27889;SDS011;15238;49.082;9.102;2023-06-19T01:15:55;11.27;;;6.03;;
27889;SDS011;15238;49.082;9.102;2023-06-19T01:17:57;9.70;;;6.18;;
27889;SDS011;15238;49.082;9.102;2023-06-19T01:20:00;12.45;;;5.93;;
27889;SDS011;15238;49.082;9.102;2023-06-19T01:22:06;12.10;;;5.65;;
27889;SDS011;15238;49.082;9.102;2023-06-19T01:24:07;5.90;;;5.20;;
27889;SDS011;15238;49.082;9.102;2023-06-19T01:26:08;7.80;;;4.57;;
27889;SDS011;15238;49.082;9.102;2023-06-19T01:28:10;6.82;;;4.30;;
27889;SDS011;15238;49.082;9.102;2023-06-19T01:30:11;9.82;;;3.60;;
27889;SDS011;15238;49.082;9.102;2023-06-19T01:32:18;9.30;;;3.70;;
27889;SDS011;15238;49.082;9.102;2023-06-19T01:34:28;5.78;;;2.92;;
27889;SDS011;15238;49.082;9.102;2023-06-19T01:36:30;7.80;;;2.72;;
27889;SDS011;15238;49.082;9.102;2023-06-19T01:38:32;3.78;;;2.83;;
27889;SDS011;15238;49.082;9.102;2023-06-19T01:40:34;8.43;;;2.90;;
27889;SDS011;15238;49.082;9.102;2023-06-19T01:42:37;4.72;;;2.67;;
27889;SDS011;15238;49.082;9.102;2023-06-19T01:44:38;3.53;;;2.72;;
27889;SDS011;15238;49.082;9.102;2023-06-19T01:46:39;3.75;;;2.35;;
27889;SDS011;15238;49.082;9.102;2023-06-19T01:48:40;5.00;;;2.17;;
27889;SDS011;15238;49.082;9.102;2023-06-19T01:50:47;6.00;;;2.10;;
27889;SDS011;15238;49.082;9.102;2023-06-19T01:52:49;5.93;;;2.08;;
27889;SDS011;15238;49.082;9.102;2023-06-19T01:54:50;11.30;;;2.08;;
27889;SDS011;15238;49.082;9.102;2023-06-19T01:56:51;2.63;;;1.75;;
27889;SDS011;15238;49.082;9.102;2023-06-19T01:58:52;1.98;;;1.60;;
27889;SDS011;15238;49.082;9.102;2023-06-19T02:00:54;4.32;;;1.98;;
27889;SDS011;15238;49.082;9.102;2023-06-19T02:02:55;5.03;;;1.77;;
27889;SDS011;15238;49.082;9.102;2023-06-19T02:04:55;5.03;;;1.70;;
27889;SDS011;15238;49.082;9.102;2023-06-19T02:06:56;2.78;;;1.50;;
27889;SDS011;15238;49.082;9.102;2023-06-19T02:08:56;3.50;;;1.38;;
27889;SDS011;15238;49.082;9.102;2023-06-19T02:10:57;4.65;;;1.60;;
27889;SDS011;15238;49.082;9.102;2023-06-19T02:12:57;1.65;;;1.55;;
27889;SDS011;15238;49.082;9.102;2023-06-19T02:14:58;2.72;;;1.30;;
27889;SDS011;15238;49.082;9.102;2023-06-19T02:16:58;2.10;;;1.30;;
27889;SDS011;15238;49.082;9.102;2023-06-19T02:18:59;3.28;;;1.30;;
27889;SDS011;15238;49.082;9.102;2023-06-19T02:21:00;4.38;;;1.42;;
27889;SDS011;15238;49.082;9.102;2023-06-19T02:23:00;5.07;;;1.60;;
27889;SDS011;15238;49.082;9.102;2023-06-19T02:25:01;3.08;;;1.20;;
27889;SDS011;15238;49.082;9.102;2023-06-19T02:27:02;1.70;;;1.17;;
27889;SDS011;15238;49.082;9.102;2023-06-19T02:29:02;3.45;;;1.08;;
27889;SDS011;15238;49.082;9.102;2023-06-19T02:31:03;2.03;;;1.05;;
27889;SDS011;15238;49.082;9.102;2023-06-19T02:33:03;1.27;;;1.00;;
27889;SDS011;15238;49.082;9.102;2023-06-19T02:35:05;1.33;;;1.08;;
27889;SDS011;15238;49.082;9.102;2023-06-19T02:37:08;3.22;;;1.10;;
27889;SDS011;15238;49.082;9.102;2023-06-19T02:39:09;1.98;;;1.05;;
27889;SDS011;15238;49.082;9.102;2023-06-19T02:41:10;1.00;;;0.90;;
27889;SDS011;15238;49.082;9.102;2023-06-19T02:43:10;1.65;;;1.20;;
27889;SDS011;15238;49.082;9.102;2023-06-19T02:45:11;5.18;;;1.23;;
27889;SDS011;15238;49.082;9.102;2023-06-19T02:47:11;2.53;;;1.33;;
27889;SDS011;15238;49.082;9.102;2023-06-19T02:49:12;5.65;;;1.17;;
27889;SDS011;15238;49.082;9.102;2023-06-19T02:51:12;2.55;;;1.15;;
27889;SDS011;15238;49.082;9.102;2023-06-19T02:53:13;1.42;;;1.05;;
27889;SDS011;15238;49.082;9.102;2023-06-19T02:55:14;2.45;;;1.30;;
27889;SDS011;15238;49.082;9.102;2023-06-19T02:57:14;5.53;;;1.42;;
27889;SDS011;15238;49.082;9.102;2023-06-19T02:59:15;3.95;;;1.50;;
27889;SDS011;15238;49.082;9.102;2023-06-19T03:01:15;1.80;;;1.25;;
27889;SDS011;15238;49.082;9.102;2023-06-19T03:03:16;5.53;;;1.52;;
27889;SDS011;15238;49.082;9.102;2023-06-19T03:05:16;2.38;;;1.95;;
27889;SDS011;15238;49.082;9.102;2023-06-19T03:07:17;4.47;;;1.73;;
27889;SDS011;15238;49.082;9.102;2023-06-19T03:09:18;1.70;;;1.50;;
27889;SDS011;15238;49.082;9.102;2023-06-19T03:11:18;2.30;;;1.70;;
27889;SDS011;15238;49.082;9.102;2023-06-19T03:13:19;2.05;;;1.40;;
27889;SDS011;15238;49.082;9.102;2023-06-19T03:15:19;1.85;;;1.58;;
27889;SDS011;15238;49.082;9.102;2023-06-19T03:17:20;3.28;;;1.75;;
27889;SDS011;15238;49.082;9.102;2023-06-19T03:19:20;3.65;;;1.88;;
27889;SDS011;15238;49.082;9.102;2023-06-19T03:21:21;4.53;;;2.20;;
27889;SDS011;15238;49.082;9.102;2023-06-19T03:23:21;2.03;;;1.80;;
27889;SDS011;15238;49.082;9.102;2023-06-19T03:25:22;3.03;;;1.90;;
27889;SDS011;15238;49.082;9.102;2023-06-19T03:27:22;2.17;;;1.80;;
27889;SDS011;15238;49.082;9.102;2023-06-19T03:29:26;3.35;;;2.00;;
27889;SDS011;15238;49.082;9.102;2023-06-19T03:31:26;1.67;;;1.58;;
27889;SDS011;15238;49.082;9.102;2023-06-19T03:33:27;3.20;;;2.38;;
27889;SDS011;15238;49.082;9.102;2023-06-19T03:35:27;3.58;;;1.95;;
27889;SDS011;15238;49.082;9.102;2023-06-19T03:37:28;4.38;;;2.05;;
27889;SDS011;15238;49.082;9.102;2023-06-19T03:39:29;3.30;;;2.17;;
27889;SDS011;15238;49.082;9.102;2023-06-19T03:41:29;2.13;;;1.92;;
27889;SDS011;15238;49.082;9.102;2023-06-19T03:43:30;2.30;;;2.00;;
27889;SDS011;15238;49.082;9.102;2023-06-19T03:45:31;1.92;;;1.73;;
27889;SDS011;15238;49.082;9.102;2023-06-19T03:47:31;1.98;;;1.83;;
27889;SDS011;15238;49.082;9.102;2023-06-19T03:49:32;2.25;;;1.70;;
27889;SDS011;15238;49.082;9.102;2023-06-19T03:51:32;1.75;;;1.60;;
27889;SDS011;15238;49.082;9.102;2023-06-19T03:53:33;2.45;;;1.77;;
27889;SDS011;15238;49.082;9.102;2023-06-19T03:55:33;2.55;;;1.73;;
27889;SDS011;15238;49.082;9.102;2023-06-19T03:57:34;4.00;;;1.85;;
27889;SDS011;15238;49.082;9.102;2023-06-19T03:59:34;3.58;;;2.08;;
27889;SDS011;15238;49.082;9.102;2023-06-19T04:01:35;2.00;;;1.80;;
27889;SDS011;15238;49.082;9.102;2023-06-19T04:03:35;1.83;;;1.70;;
27889;SDS011;15238;49.082;9.102;2023-06-19T04:05:36;3.63;;;2.00;;
27889;SDS011;15238;49.082;9.102;2023-06-19T04:07:36;1.58;;;1.48;;
27889;SDS011;15238;49.082;9.102;2023-06-19T04:09:37;13.02;;;3.80;;
27889;SDS011;15238;49.082;9.102;2023-06-19T04:11:37;2.10;;;1.90;;
27889;SDS011;15238;49.082;9.102;2023-06-19T04:13:38;3.85;;;1.83;;
27889;SDS011;15238;49.082;9.102;2023-06-19T04:15:38;2.60;;;2.00;;
27889;SDS011;15238;49.082;9.102;2023-06-19T04:17:39;2.47;;;2.20;;
27889;SDS011;15238;49.082;9.102;2023-06-19T04:19:39;2.88;;;1.90;;
27889;SDS011;15238;49.082;9.102;2023-06-19T04:21:40;3.88;;;1.70;;
27889;SDS011;15238;49.082;9.102;2023-06-19T04:23:40;2.88;;;1.83;;
27889;SDS011;15238;49.082;9.102;2023-06-19T04:25:41;1.85;;;1.70;;
27889;SDS011;15238;49.082;9.102;2023-06-19T04:27:41;2.90;;;2.05;;
27889;SDS011;15238;49.082;9.102;2023-06-19T04:29:44;1.75;;;1.63;;
27889;SDS011;15238;49.082;9.102;2023-06-19T04:31:45;4.70;;;2.30;;
27889;SDS011;15238;49.082;9.102;2023-06-19T04:33:49;2.40;;;1.70;;
27889;SDS011;15238;49.082;9.102;2023-06-19T04:35:49;5.13;;;2.20;;
27889;SDS011;15238;49.082;9.102;2023-06-19T04:37:50;2.72;;;2.10;;
27889;SDS011;15238;49.082;9.102;2023-06-19T04:39:50;3.50;;;2.08;;
27889;SDS011;15238;49.082;9.102;2023-06-19T04:41:51;2.42;;;1.83;;
27889;SDS011;15238;49.082;9.102;2023-06-19T04:43:51;4.43;;;2.15;;
27889;SDS011;15238;49.082;9.102;2023-06-19T04:45:52;4.40;;;1.75;;
27889;SDS011;15238;49.082;9.102;2023-06-19T04:47:52;5.97;;;2.10;;
27889;SDS011;15238;49.082;9.102;2023-06-19T04:49:53;5.60;;;2.05;;
27889;SDS011;15238;49.082;9.102;2023-06-19T04:51:53;2.15;;;1.88;;
27889;SDS011;15238;49.082;9.102;2023-06-19T04:53:54;5.40;;;1.98;;
27889;SDS011;15238;49.082;9.102;2023-06-19T04:55:54;2.13;;;1.80;;
27889;SDS011;15238;49.082;9.102;2023-06-19T04:57:55;4.95;;;2.15;;
27889;SDS011;15238;49.082;9.102;2023-06-19T04:59:55;4.00;;;2.35;;
27889;SDS011;15238;49.082;9.102;2023-06-19T05:01:56;4.93;;;2.00;;
27889;SDS011;15238;49.082;9.102;2023-06-19T05:03:57;4.30;;;2.33;;
27889;SDS011;15238;49.082;9.102;2023-06-19T05:05:59;6.57;;;1.98;;
27889;SDS011;15238;49.082;9.102;2023-06-19T05:07:59;12.27;;;2.70;;
27889;SDS011;15238;49.082;9.102;2023-06-19T05:10:01;3.30;;;2.05;;
27889;SDS011;15238;49.082;9.102;2023-06-19T05:12:02;3.08;;;2.10;;
27889;SDS011;15238;49.082;9.102;2023-06-19T05:14:03;3.40;;;1.80;;
27889;SDS011;15238;49.082;9.102;2023-06-19T05:16:03;2.90;;;2.40;;
27889;SDS011;15238;49.082;9.102;2023-06-19T05:18:04;2.53;;;2.00;;
27889;SDS011;15238;49.082;9.102;2023-06-19T05:20:05;3.95;;;2.10;;
27889;SDS011;15238;49.082;9.102;2023-06-19T05:22:07;3.55;;;2.13;;
27889;SDS011;15238;49.082;9.102;2023-06-19T05:24:07;6.15;;;2.38;;
27889;SDS011;15238;49.082;9.102;2023-06-19T05:26:08;2.55;;;2.30;;
27889;SDS011;15238;49.082;9.102;2023-06-19T05:28:09;3.00;;;2.20;;
27889;SDS011;15238;49.082;9.102;2023-06-19T05:30:09;2.90;;;2.05;;
27889;SDS011;15238;49.082;9.102;2023-06-19T05:32:10;2.72;;;2.20;;
27889;SDS011;15238;49.082;9.102;2023-06-19T05:34:11;5.47;;;2.17;;
27889;SDS011;15238;49.082;9.102;2023-06-19T05:36:11;4.00;;;2.10;;
27889;SDS011;15238;49.082;9.102;2023-06-19T05:38:12;2.95;;;1.88;;
27889;SDS011;15238;49.082;9.102;2023-06-19T05:40:12;3.90;;;2.10;;
27889;SDS011;15238;49.082;9.102;2023-06-19T05:42:13;3.55;;;2.10;;
27889;SDS011;15238;49.082;9.102;2023-06-19T05:44:14;5.72;;;2.40;;
27889;SDS011;15238;49.082;9.102;2023-06-19T05:46:16;3.10;;;2.35;;
27889;SDS011;15238;49.082;9.102;2023-06-19T05:48:17;2.67;;;2.28;;
27889;SDS011;15238;49.082;9.102;2023-06-19T05:50:17;3.30;;;2.35;;
27889;SDS011;15238;49.082;9.102;2023-06-19T05:52:18;3.42;;;2.03;;
27889;SDS011;15238;49.082;9.102;2023-06-19T05:54:18;2.97;;;2.15;;
27889;SDS011;15238;49.082;9.102;2023-06-19T05:56:19;2.33;;;2.10;;
27889;SDS011;15238;49.082;9.102;2023-06-19T05:58:19;3.38;;;2.17;;
27889;SDS011;15238;49.082;9.102;2023-06-19T06:00:21;4.85;;;2.30;;
27889;SDS011;15238;49.082;9.102;2023-06-19T06:02:22;3.97;;;2.03;;
27889;SDS011;15238;49.082;9.102;2023-06-19T06:04:22;3.17;;;2.58;;
27889;SDS011;15238;49.082;9.102;2023-06-19T06:06:23;3.03;;;2.40;;
27889;SDS011;15238;49.082;9.102;2023-06-19T06:08:25;5.30;;;2.40;;
27889;SDS011;15238;49.082;9.102;2023-06-19T06:10:26;3.88;;;2.35;;
27889;SDS011;15238;49.082;9.102;2023-06-19T06:12:26;2.58;;;2.13;;
27889;SDS011;15238;49.082;9.102;2023-06-19T06:14:27;7.32;;;2.40;;
27889;SDS011;15238;49.082;9.102;2023-06-19T06:16:27;3.60;;;2.20;;
27889;SDS011;15238;49.082;9.102;2023-06-19T06:18:28;3.13;;;1.90;;
27889;SDS011;15238;49.082;9.102;2023-06-19T06:20:29;2.42;;;1.95;;
27889;SDS011;15238;49.082;9.102;2023-06-19T06:22:29;2.17;;;1.75;;
27889;SDS011;15238;49.082;9.102;2023-06-19T06:24:30;3.15;;;1.90;;
27889;SDS011;15238;49.082;9.102;2023-06-19T06:26:30;4.63;;;2.20;;
27889;SDS011;15238;49.082;9.102;2023-06-19T06:28:31;2.20;;;2.00;;
27889;SDS011;15238;49.082;9.102;2023-06-19T06:30:31;2.17;;;1.98;;
27889;SDS011;15238;49.082;9.102;2023-06-19T06:32:32;3.22;;;2.10;;
27889;SDS011;15238;49.082;9.102;2023-06-19T06:34:34;2.80;;;2.13;;
27889;SDS011;15238;49.082;9.102;2023-06-19T06:36:34;2.67;;;2.25;;
27889;SDS011;15238;49.082;9.102;2023-06-19T06:38:35;2.97;;;2.33;;
27889;SDS011;15238;49.082;9.102;2023-06-19T06:40:36;2.60;;;2.35;;
27889;SDS011;15238;49.082;9.102;2023-06-19T06:42:36;2.50;;;2.25;;
27889;SDS011;15238;49.082;9.102;2023-06-19T06:44:38;1.90;;;1.75;;
27889;SDS011;15238;49.082;9.102;2023-06-19T06:46:38;2.70;;;2.15;;
27889;SDS011;15238;49.082;9.102;2023-06-19T06:48:39;3.47;;;2.40;;
27889;SDS011;15238;49.082;9.102;2023-06-19T06:50:39;2.72;;;2.03;;
27889;SDS011;15238;49.082;9.102;2023-06-19T06:52:41;3.58;;;2.05;;
27889;SDS011;15238;49.082;9.102;2023-06-19T06:54:41;3.90;;;2.42;;
27889;SDS011;15238;49.082;9.102;2023-06-19T06:56:42;2.47;;;2.10;;
27889;SDS011;15238;49.082;9.102;2023-06-19T06:58:45;3.50;;;2.30;;
27889;SDS011;15238;49.082;9.102;2023-06-19T07:00:47;2.33;;;2.13;;
27889;SDS011;15238;49.082;9.102;2023-06-19T07:02:47;2.63;;;1.83;;
27889;SDS011;15238;49.082;9.102;2023-06-19T07:04:50;2.60;;;2.20;;
27889;SDS011;15238;49.082;9.102;2023-06-19T07:06:51;3.22;;;2.22;;
27889;SDS011;15238;49.082;9.102;2023-06-19T07:08:51;2.25;;;1.98;;
27889;SDS011;15238;49.082;9.102;2023-06-19T07:10:52;2.78;;;2.05;;
27889;SDS011;15238;49.082;9.102;2023-06-19T07:12:53;2.58;;;2.13;;
27889;SDS011;15238;49.082;9.102;2023-06-19T07:14:53;3.50;;;2.40;;
27889;SDS011;15238;49.082;9.102;2023-06-19T07:16:54;2.72;;;2.00;;
27889;SDS011;15238;49.082;9.102;2023-06-19T07:18:55;4.57;;;1.95;;
27889;SDS011;15238;49.082;9.102;2023-06-19T07:20:55;2.08;;;1.88;;
27889;SDS011;15238;49.082;9.102;2023-06-19T07:22:56;4.20;;;1.98;;
27889;SDS011;15238;49.082;9.102;2023-06-19T07:24:56;2.00;;;1.85;;
27889;SDS011;15238;49.082;9.102;2023-06-19T07:26:57;2.45;;;2.17;;
27889;SDS011;15238;49.082;9.102;2023-06-19T07:28:57;2.45;;;2.00;;
27889;SDS011;15238;49.082;9.102;2023-06-19T07:30:58;2.17;;;1.98;;
27889;SDS011;15238;49.082;9.102;2023-06-19T07:32:58;1.90;;;1.77;;
27889;SDS011;15238;49.082;9.102;2023-06-19T07:34:59;3.42;;;1.80;;
27889;SDS011;15238;49.082;9.102;2023-06-19T07:37:00;2.58;;;2.20;;
27889;SDS011;15238;49.082;9.102;2023-06-19T07:39:00;3.55;;;2.13;;
27889;SDS011;15238;49.082;9.102;2023-06-19T07:41:01;2.58;;;2.00;;
27889;SDS011;15238;49.082;9.102;2023-06-19T07:43:01;3.22;;;1.73;;
27889;SDS011;15238;49.082;9.102;2023-06-19T07:45:02;3.85;;;2.25;;
27889;SDS011;15238;49.082;9.102;2023-06-19T07:47:03;2.40;;;2.20;;
27889;SDS011;15238;49.082;9.102;2023-06-19T07:49:04;4.47;;;2.60;;
27889;SDS011;15238;49.082;9.102;2023-06-19T07:51:04;3.50;;;2.58;;
27889;SDS011;15238;49.082;9.102;2023-06-19T07:53:05;5.05;;;2.97;;
27889;SDS011;15238;49.082;9.102;2023-06-19T07:55:05;3.35;;;2.47;;
27889;SDS011;15238;49.082;9.102;2023-06-19T07:57:06;5.82;;;2.30;;
27889;SDS011;15238;49.082;9.102;2023-06-19T07:59:08;3.60;;;2.42;;
27889;SDS011;15238;49.082;9.102;2023-06-19T08:01:08;3.05;;;2.20;;
27889;SDS011;15238;49.082;9.102;2023-06-19T08:03:10;3.83;;;2.40;;
27889;SDS011;15238;49.082;9.102;2023-06-19T08:05:10;5.47;;;2.05;;
27889;SDS011;15238;49.082;9.102;2023-06-19T08:07:11;2.97;;;2.40;;
27889;SDS011;15238;49.082;9.102;2023-06-19T08:09:12;2.42;;;2.00;;
27889;SDS011;15238;49.082;9.102;2023-06-19T08:11:13;2.72;;;2.03;;
27889;SDS011;15238;49.082;9.102;2023-06-19T08:13:14;2.67;;;2.35;;
27889;SDS011;15238;49.082;9.102;2023-06-19T08:15:14;3.85;;;2.38;;
27889;SDS011;15238;49.082;9.102;2023-06-19T08:17:15;2.35;;;2.10;;
27889;SDS011;15238;49.082;9.102;2023-06-19T08:19:16;2.85;;;2.25;;
27889;SDS011;15238;49.082;9.102;2023-06-19T08:21:16;4.18;;;2.00;;
27889;SDS011;15238;49.082;9.102;2023-06-19T08:23:17;4.85;;;2.20;;
27889;SDS011;15238;49.082;9.102;2023-06-19T08:25:17;4.15;;;2.25;;
27889;SDS011;15238;49.082;9.102;2023-06-19T08:27:18;2.03;;;1.83;;
27889;SDS011;15238;49.082;9.102;2023-06-19T08:29:18;2.10;;;1.90;;
27889;SDS011;15238;49.082;9.102;2023-06-19T08:31:19;2.50;;;2.20;;
27889;SDS011;15238;49.082;9.102;2023-06-19T08:33:21;5.22;;;2.20;;
27889;SDS011;15238;49.082;9.102;2023-06-19T08:35:22;4.70;;;2.05;;
27889;SDS011;15238;49.082;9.102;2023-06-19T08:37:23;2.47;;;2.08;;
27889;SDS011;15238;49.082;9.102;2023-06-19T08:39:23;3.17;;;1.90;;
27889;SDS011;15238;49.082;9.102;2023-06-19T08:41:24;2.85;;;2.30;;
27889;SDS011;15238;49.082;9.102;2023-06-19T08:43:25;4.22;;;2.85;;
27889;SDS011;15238;49.082;9.102;2023-06-19T08:45:26;4.97;;;2.30;;
27889;SDS011;15238;49.082;9.102;2023-06-19T08:47:34;2.40;;;2.20;;
27889;SDS011;15238;49.082;9.102;2023-06-19T08:49:34;2.80;;;2.60;;
27889;SDS011;15238;49.082;9.102;2023-06-19T08:51:35;5.15;;;2.10;;
27889;SDS011;15238;49.082;9.102;2023-06-19T08:53:43;2.95;;;2.50;;
27889;SDS011;15238;49.082;9.102;2023-06-19T08:55:48;2.50;;;2.30;;
27889;SDS011;15238;49.082;9.102;2023-06-19T08:57:51;3.28;;;2.25;;
27889;SDS011;15238;49.082;9.102;2023-06-19T08:59:54;2.50;;;2.30;;
27889;SDS011;15238;49.082;9.102;2023-06-19T09:01:55;4.70;;;2.63;;
27889;SDS011;15238;49.082;9.102;2023-06-19T09:03:55;2.72;;;2.53;;
27889;SDS011;15238;49.082;9.102;2023-06-19T09:05:56;2.50;;;2.17;;
27889;SDS011;15238;49.082;9.102;2023-06-19T09:07:59;3.75;;;2.30;;
27889;SDS011;15238;49.082;9.102;2023-06-19T09:10:15;2.35;;;2.15;;
27889;SDS011;15238;49.082;9.102;2023-06-19T09:12:18;2.20;;;2.00;;
27889;SDS011;15238;49.082;9.102;2023-06-19T09:14:19;4.45;;;2.28;;
27889;SDS011;15238;49.082;9.102;2023-06-19T09:16:23;2.60;;;2.33;;
27889;SDS011;15238;49.082;9.102;2023-06-19T09:18:26;2.67;;;2.03;;
27889;SDS011;15238;49.082;9.102;2023-06-19T09:20:27;2.70;;;2.33;;
27889;SDS011;15238;49.082;9.102;2023-06-19T09:22:28;3.17;;;2.45;;
27889;SDS011;15238;49.082;9.102;2023-06-19T09:24:39;3.70;;;2.10;;
27889;SDS011;15238;49.082;9.102;2023-06-19T09:26:41;2.58;;;2.38;;
27889;SDS011;15238;49.082;9.102;2023-06-19T09:28:41;2.50;;;2.30;;
27889;SDS011;15238;49.082;9.102;2023-06-19T09:31:02;2.20;;;2.00;;
27889;SDS011;15238;49.082;9.102;2023-06-19T09:33:08;2.72;;;2.30;;
27889;SDS011;15238;49.082;9.102;2023-06-19T09:35:08;2.70;;;2.38;;
27889;SDS011;15238;49.082;9.102;2023-06-19T09:37:09;2.45;;;2.17;;
27889;SDS011;15238;49.082;9.102;2023-06-19T09:39:10;3.30;;;3.00;;
27889;SDS011;15238;49.082;9.102;2023-06-19T09:41:11;3.88;;;2.92;;
27889;SDS011;15238;49.082;9.102;2023-06-19T09:43:13;5.78;;;2.70;;
27889;SDS011;15238;49.082;9.102;2023-06-19T09:45:20;3.72;;;2.70;;
27889;SDS011;15238;49.082;9.102;2023-06-19T09:47:23;5.32;;;2.58;;
27889;SDS011;15238;49.082;9.102;2023-06-19T09:49:28;3.83;;;2.53;;
27889;SDS011;15238;49.082;9.102;2023-06-19T09:51:33;4.25;;;2.75;;
27889;SDS011;15238;49.082;9.102;2023-06-19T09:53:38;6.78;;;3.05;;
27889;SDS011;15238;49.082;9.102;2023-06-19T09:55:39;5.28;;;2.80;;
27889;SDS011;15238;49.082;9.102;2023-06-19T09:57:41;3.13;;;2.83;;
27889;SDS011;15238;49.082;9.102;2023-06-19T09:59:43;4.00;;;3.65;;
27889;SDS011;15238;49.082;9.102;2023-06-19T10:01:49;5.25;;;3.20;;
27889;SDS011;15238;49.082;9.102;2023-06-19T10:03:50;3.42;;;3.00;;
27889;SDS011;15238;49.082;9.102;2023-06-19T10:06:01;3.47;;;3.17;;
27889;SDS011;15238;49.082;9.102;2023-06-19T10:08:03;3.95;;;2.95;;
27889;SDS011;15238;49.082;9.102;2023-06-19T10:10:05;3.92;;;3.25;;
27889;SDS011;15238;49.082;9.102;2023-06-19T10:12:13;6.10;;;3.15;;
27889;SDS011;15238;49.082;9.102;2023-06-19T10:14:13;4.15;;;3.50;;
27889;SDS011;15238;49.082;9.102;2023-06-19T10:16:21;5.95;;;3.38;;
27889;SDS011;15238;49.082;9.102;2023-06-19T10:18:22;3.67;;;3.33;;
27889;SDS011;15238;49.082;9.102;2023-06-19T10:22:38;5.80;;;3.42;;
27889;SDS011;15238;49.082;9.102;2023-06-19T10:24:38;4.05;;;3.40;;
27889;SDS011;15238;49.082;9.102;2023-06-19T10:26:56;7.70;;;3.80;;
27889;SDS011;15238;49.082;9.102;2023-06-19T10:28:58;4.72;;;3.50;;
27889;SDS011;15238;49.082;9.102;2023-06-19T10:31:01;3.88;;;3.47;;
27889;SDS011;15238;49.082;9.102;2023-06-19T10:33:05;5.38;;;3.50;;
27889;SDS011;15238;49.082;9.102;2023-06-19T10:35:10;9.48;;;3.60;;
27889;SDS011;15238;49.082;9.102;2023-06-19T10:37:12;4.95;;;3.42;;
27889;SDS011;15238;49.082;9.102;2023-06-19T10:39:13;3.85;;;3.47;;
27889;SDS011;15238;49.082;9.102;2023-06-19T10:41:14;4.97;;;3.40;;
27889;SDS011;15238;49.082;9.102;2023-06-19T10:43:19;4.80;;;4.22;;
27889;SDS011;15238;49.082;9.102;2023-06-19T10:45:32;4.97;;;4.00;;
27889;SDS011;15238;49.082;9.102;2023-06-19T10:47:33;3.83;;;3.45;;
27889;SDS011;15238;49.082;9.102;2023-06-19T10:49:33;6.22;;;3.63;;
27889;SDS011;15238;49.082;9.102;2023-06-19T10:51:38;4.72;;;3.47;;
27889;SDS011;15238;49.082;9.102;2023-06-19T10:53:40;4.85;;;3.92;;
27889;SDS011;15238;49.082;9.102;2023-06-19T10:55:40;4.25;;;3.85;;
27889;SDS011;15238;49.082;9.102;2023-06-19T10:57:44;4.05;;;3.65;;
27889;SDS011;15238;49.082;9.102;2023-06-19T10:59:45;3.97;;;3.60;;
27889;SDS011;15238;49.082;9.102;2023-06-19T11:01:46;5.70;;;4.38;;
27889;SDS011;15238;49.082;9.102;2023-06-19T11:03:48;4.35;;;3.65;;
27889;SDS011;15238;49.082;9.102;2023-06-19T11:05:51;5.13;;;3.78;;
27889;SDS011;15238;49.082;9.102;2023-06-19T11:07:55;4.43;;;4.03;;
27889;SDS011;15238;49.082;9.102;2023-06-19T11:09:58;4.88;;;3.65;;
27889;SDS011;15238;49.082;9.102;2023-06-19T11:11:58;4.70;;;3.60;;
27889;SDS011;15238;49.082;9.102;2023-06-19T11:14:01;4.00;;;3.60;;
27889;SDS011;15238;49.082;9.102;2023-06-19T11:16:01;4.57;;;4.03;;
27889;SDS011;15238;49.082;9.102;2023-06-19T11:18:02;3.85;;;3.55;;
27889;SDS011;15238;49.082;9.102;2023-06-19T11:20:03;2.90;;;2.70;;
27889;SDS011;15238;49.082;9.102;2023-06-19T11:22:05;3.30;;;3.00;;
27889;SDS011;15238;49.082;9.102;2023-06-19T11:24:10;3.90;;;2.97;;
27889;SDS011;15238;49.082;9.102;2023-06-19T11:26:12;3.15;;;2.92;;
27889;SDS011;15238;49.082;9.102;2023-06-19T11:30:14;4.20;;;2.80;;
27889;SDS011;15238;49.082;9.102;2023-06-19T11:32:16;2.92;;;2.70;;
27889;SDS011;15238;49.082;9.102;2023-06-19T11:34:30;3.20;;;2.90;;
27889;SDS011;15238;49.082;9.102;2023-06-19T11:36:36;4.23;;;2.83;;
27889;SDS011;15238;49.082;9.102;2023-06-19T11:38:37;3.15;;;2.95;;
27889;SDS011;15238;49.082;9.102;2023-06-19T11:40:41;3.83;;;3.47;;
27889;SDS011;15238;49.082;9.102;2023-06-19T11:42:45;3.70;;;3.15;;
27889;SDS011;15238;49.082;9.102;2023-06-19T11:45:01;3.50;;;3.20;;
27889;SDS011;15238;49.082;9.102;2023-06-19T11:47:06;5.57;;;3.20;;
27889;SDS011;15238;49.082;9.102;2023-06-19T11:49:16;5.10;;;3.55;;
27889;SDS011;15238;49.082;9.102;2023-06-19T11:51:20;3.63;;;3.33;;
27889;SDS011;15238;49.082;9.102;2023-06-19T11:53:21;3.40;;;3.10;;
27889;SDS011;15238;49.082;9.102;2023-06-19T11:55:24;4.00;;;2.92;;
27889;SDS011;15238;49.082;9.102;2023-06-19T11:57:24;3.95;;;3.40;;
27889;SDS011;15238;49.082;9.102;2023-06-19T11:59:26;3.25;;;2.88;;
27889;SDS011;15238;49.082;9.102;2023-06-19T12:01:27;5.00;;;4.00;;
27889;SDS011;15238;49.082;9.102;2023-06-19T12:03:27;5.47;;;3.50;;
27889;SDS011;15238;49.082;9.102;2023-06-19T12:05:28;4.05;;;3.28;;
27889;SDS011;15238;49.082;9.102;2023-06-19T12:07:28;3.72;;;3.40;;
27889;SDS011;15238;49.082;9.102;2023-06-19T12:09:29;5.38;;;3.10;;
27889;SDS011;15238;49.082;9.102;2023-06-19T12:11:31;4.10;;;2.83;;
27889;SDS011;15238;49.082;9.102;2023-06-19T12:13:32;3.08;;;2.78;;
27889;SDS011;15238;49.082;9.102;2023-06-19T12:15:32;3.28;;;2.72;;
27889;SDS011;15238;49.082;9.102;2023-06-19T12:17:33;3.03;;;2.70;;
27889;SDS011;15238;49.082;9.102;2023-06-19T12:19:34;2.83;;;2.63;;
27889;SDS011;15238;49.082;9.102;2023-06-19T12:21:34;5.50;;;2.70;;